Airfield :
LOGIN :

Register | Disclaimer

   EN    FR    IT 

 










Legend :    VFR   Marginal VFR   IFR   Intensive IFR   Very Intensive IFR
Visi :
Ceiling :
>= 8 km
>= 3000ft
5 to 8 km
1000 to 3000 ft
1500m to 5 km
500 to 1000 ft
800 to 1500m
200 to 500 ft
< 800m
< 200 ft
Symbols :   Thunderstorms  Fog  Heavy snow  Heavy precipitations  Wind > 20 kt
SIGMETs :     Misc.  Thunderstorms  Icing  Turbulence  Mountain Waves  Volcanic Ashes






- Airport Elevation : 228 ft
- IATA code : OPO


LPPR - Porto Fr. Sa Carneiro

CURRENT METAR :
  • 052030Z 06007KT 040V100 CAVOK 12/03 Q1028

EXPIRED METARs :
  • 052000Z 10006KT CAVOK 12/03 Q1029
  • 051930Z 11008KT 070V130 CAVOK 13/03 Q1029
  • 051900Z 11009KT CAVOK 14/03 Q1029
  • 051830Z 11008KT CAVOK 14/03 Q1029
  • 051800Z 11006KT 050V150 CAVOK 15/02 Q1028

TAF TAF LPPR
Valid from the 05 at 18:00 until the 06 at 18:00 UTC


051700Z 0518/0618 09010KT CAVOK
TEMPO 0615/0618 36010KT



MET'MAP, your aeronautical weather chart ! - Copyright ORBIFLY December 2007 - Disclaimer

ORBIFLY MET'MAP TEAM :

Programming & Development : Alexandra Zaïnal
Original concept : Baudouin d'Aumeries
Technical & hardware support : Manuel Goepfert
Assistance : Marc-Olivier Méhu




SOURCES & CREDITS :

   NOAA